Oakville, Canada
Current Conditions -  °F | °C
As of 11:00 AM on Saturday 25 Oct 2014 (Local Time) from CYYZ Reporting Station
Broken Clouds Broken Clouds  
Wind Chill: 59°   Ceiling: 10000
Heat Index: 59°   Visibility: 12mi
Dew Point: 48°   Wind: 17mph
Humidity: 67%   Direction: 240°WSW
Pressure: 29.68"   Gusts: 24mph
Location:  43.47°N, 79.69°W
Report Text: CYYZ 251500Z 24015G21KT 12SM SCT073 BKN100 BKN240 15/09 A2968 RMK AC3AC2CI1 SLP052 DENSITY ALT 900FT
Loading
Personal Weather Stations






























Interactive Weather Map
Tropical Storm Tracking
New forecast layout! Learn more

10-Day Weather Forecast

Advertisements
Track Severe Weather on mobile